Airport View

Enter AWOS ICAO identifier for current METAR.

KFNL for example

KPIT 301651Z 00000KT 10SM SCT050 BKN090 24/10 A3007

30 Jun 2016 17:30

Phone: 412-472-0145

Other Area AWOS: 42PN - KAGC - KBVI - KBTP

TAF AMD KPIT 301456Z 3015/0118 00000KT P6SM SCT035 SCT250 FM011500 25006KT P6SM BKN200